EB1BHC-9
43.22.10N 005.48.79W
IN73CI aprs.fi
89km/h, 22°
zuletzt gehört:
2022-01-08T12:04:00Z

APRS Oviedo [IN73CI], 0 Stunde(n), EB1BHC-9 [19:55:01, 0s].
LEHU 43.22.63N 005.49.57WIN73CJ 1.826km 305°NW18:30:05ZHelipuerto del HUCA: LEAS 191730Z 08003KT CAVOK 08/06 Q1033 NOSIG=
33D00 43.21.63N 005.51.13WIN73BI 3.666km 257°WSW18:02:21Z33-D-00 Protección Civil REMER / Delegación del Gobierno en Asturias
EA1YR 43.22.09N 005.51.86WIN73BI 4.575km 271°W18:32:53ZMMDVM DVS 434.3500/434.3500 CC1
EA1L 43.20.37N 005.51.13WIN73BI 4.743km 229°SW18:50:05Zea1l@ure.es V=13.5V,T=??.?C
Wind 077°/001kn, Böen bis 003kn, Temp 7.22c, Regen 0.0mm, letzte 24h 0.0mm, seit 0h 0.0mm, Baro 1030.5h, Hum: 85%(2EA1L-13)
EA1ABW 43.24.77N 005.47.77WIN73CJ 5.126km 11°N18:30:57ZMMDVM MMDVM HS Hat 439.8250/439.8250 CC1
EA1HWX 43.19.39N 005.50.84WIN73BH 5.870km 213°SSW18:32:51ZMMDVM DMO 435.5000/435.5000 CC1
ED1ZAU 43.23.04N 005.52.75WIN73BJ 6.051km 287°WNW18:30:15ZRD625 438.5000/430.9000 CC1
LEMR 43.25.83N 005.49.60WIN73CK 7.151km 348°NNW18:30:07ZAerodromo de la Morgal: LEAS 191730Z 08003KT CAVOK 08/06 Q1033 NOSIG=
LEGM 43.26.15N 005.49.84WIN73CK 7.817km 346°NNW18:30:05ZHelipuerto de La Morgal: LEAS 191730Z 08003KT CAVOK 08/06 Q1033 NOSIG=
EA1GCM 43.17.02N 005.48.47WIN73CG 9.339km 180°S18:46:42ZIN73cg/-(3EA1GCM-8)
EA1IMW 43.14.36N 005.46.93WIN73CF 14.419km 172°S18:32:50ZGRUPO RADIO GALENA (GRG) 430.4500/430.4500 CC1
ED1ZAS 43.27.52N 005.40.17WIN73DL 15.079km 48°NE18:30:17ZRD985 438.2250/430.6250 CC1
ED1ZAE 43.27.99N 005.40.54WIN73DL 15.313km 44°NE18:50:51Z400 M. PICO SAN MARTIN (GIJON) 13.3V,13.0C(3ED1ZAE-3)
ED1ZAY 43.29.47N 005.56.54WIN73AL 17.525km 322°NW18:30:16ZRD625 438.3000/430.7000 CC1
EB1DGC 43.12.60N 005.45.59WIN73CF 17.952km 168°SSE18:31:11ZMMDVM MMDVM HS Hat 433.4500/433.4500 CC1
EA1JBL 43.12.28N 005.47.42WIN73CE 18.158km 176°S18:32:39ZMMDVM DVMega 435.3000/435.3000 CC1
EA1HWA 43.12.00N 005.47.40WIN73CE 18.697km 176°S18:32:32ZMMDVM MMDVM HS Hat 433.4500/433.4500 CC1
EB1TK 43.32.22N 005.42.32WIN73DM 20.583km 24°NNE18:45:30ZWind 078°/000kn, Böen bis 002kn, Temp 9.44c, Regen 0.0mm, letzte 24h 0.0mm, seit 0h 0.0mm, Baro 1035.6h, Hum: 83%(3EB1TK-13)
EA1DZR 43.31.48N 005.40.00WIN73EM 20.848km 33°NNE18:32:49ZMMDVM DV ADER 434.3500/434.3500 CC1
EA1IEJ 43.31.81N 005.40.25WIN73DM 21.200km 31°NNE18:32:02ZMMDVM MMDVM HS Hat 438.8500/438.8500 CC6
EA1AHA 43.32.74N 005.54.36WIN73BN 21.319km 338°NNW18:30:58ZWind 000°/000kn, Böen bis 000kn, Temp 9.44c, Regen 36.3mm, letzte 24h 36.3mm, seit 0h 36.3mm, Baro 1034.0h, Hum: 74%(3EA1AHA-13)
MMDVM MMDVM HS Hat 432.0000/432.0000 CC1(2EA1AHA)
LEEL 43.32.98N 005.41.71WIN73DN 22.180km 24°NNE18:30:07ZHelipuerto de El Musel: LEAS 191730Z 08003KT CAVOK 08/06 Q1033 NOSIG=
EB1GEM 43.30.00N 005.36.07WIN73EM 22.261km 48°NE18:41:21ZWX3in1Plus2.0 U=13.3V,T=??.?C/??.?F(3EB1GEM-3)
EA1RCG 43.09.45N 005.49.78WIN73CD 23.415km 184°S18:31:43ZGRUPO RADIO GALENA (GRG) 430.4500/430.4500 CC1
EA1HJA 43.28.10N 005.30.45WIN73FL 26.716km 65°ENE18:54:36ZEA1HJA@URE.ES
IN73FL WX3IN1+ 2.0 - V=13.2V,TX TEMP=23.1C(2EA1HJA-2)
ED1ZAD 43.07.90N 005.38.52WIN73ED 29.455km 153°SSE18:45:33ZED1ZAD-3 APRS Digi/Igate(3ED1ZAD-3)
EA1JAY 43.29.33N 005.26.78WIN73GL 32.159km 65°ENE18:45:04ZEA1JAY(3EA1JAY-2)
EA1HWD 43.28.96N 005.26.30WIN73GL 32.464km 67°ENE18:32:33Z144.575FM Local frecuency VHF. 434.2500/434.2500 CC1
LETN 43.20.05N 006.22.69WIN63TI 46.266km 266°W18:30:05ZAerodromo de La Curiscada (Tineo): LEAS 191730Z 08003KT CAVOK 08/06 Q1033 NOSIG=
EA1JBU 43.30.80N 005.16.20WIN73IM 46.331km 69°ENE18:00:16Zhttps://aprsdroid.org/(3EA1JBU-5)
EA1JBU(2EA1JBU-2)
EA1JBE 43.30.90N 005.16.15WIN73IM 46.471km 69°ENE18:45:04ZEA1JBU(3EA1JBE-13)
MAIN QTH http://qrz.com/db/ea1jbe(2EA1JBE-1)
EA1GHF 43.17.99N 006.22.79WIN63TH 46.872km 261°W18:39:20ZMMDVM MMDVM HS Hat 434.4000/434.4000 CC1
440 MMDVM Voice 434.40000MHz +0.0000MHz, APRS for DMRGateway(2EA1GHF-D)

aprs.pl 5.0.011w DL3EL © 2006-2021 [1435518]